sensor_id;sensor_type;location;lat;lon;timestamp;P1;durP1;ratioP1;P2;durP2;ratioP2
16800;SDS011;8518;53.236;10.384;2022-12-07T00:01:20;18.57;;;14.77;;
16800;SDS011;8518;53.236;10.384;2022-12-07T00:03:47;18.93;;;13.80;;
16800;SDS011;8518;53.236;10.384;2022-12-07T00:06:14;19.17;;;14.77;;
16800;SDS011;8518;53.236;10.384;2022-12-07T00:08:41;21.03;;;15.33;;
16800;SDS011;8518;53.236;10.384;2022-12-07T00:11:09;19.47;;;13.83;;
16800;SDS011;8518;53.236;10.384;2022-12-07T00:13:37;20.77;;;14.30;;
16800;SDS011;8518;53.236;10.384;2022-12-07T00:16:07;19.73;;;14.17;;
16800;SDS011;8518;53.236;10.384;2022-12-07T00:18:41;18.03;;;13.47;;
16800;SDS011;8518;53.236;10.384;2022-12-07T00:21:10;19.87;;;13.43;;
16800;SDS011;8518;53.236;10.384;2022-12-07T00:23:38;18.13;;;13.30;;
16800;SDS011;8518;53.236;10.384;2022-12-07T00:26:06;19.33;;;13.50;;
16800;SDS011;8518;53.236;10.384;2022-12-07T00:28:36;17.73;;;13.60;;
16800;SDS011;8518;53.236;10.384;2022-12-07T00:31:06;16.87;;;13.13;;
16800;SDS011;8518;53.236;10.384;2022-12-07T00:33:34;17.30;;;12.87;;
16800;SDS011;8518;53.236;10.384;2022-12-07T00:36:00;20.57;;;14.03;;
16800;SDS011;8518;53.236;10.384;2022-12-07T00:38:29;18.87;;;13.80;;
16800;SDS011;8518;53.236;10.384;2022-12-07T00:40:56;18.57;;;12.87;;
16800;SDS011;8518;53.236;10.384;2022-12-07T00:43:29;18.97;;;13.07;;
16800;SDS011;8518;53.236;10.384;2022-12-07T00:45:55;16.67;;;12.70;;
16800;SDS011;8518;53.236;10.384;2022-12-07T00:48:21;17.17;;;12.50;;
16800;SDS011;8518;53.236;10.384;2022-12-07T00:50:48;18.43;;;13.40;;
16800;SDS011;8518;53.236;10.384;2022-12-07T00:53:14;19.27;;;13.40;;
16800;SDS011;8518;53.236;10.384;2022-12-07T00:55:40;20.07;;;13.80;;
16800;SDS011;8518;53.236;10.384;2022-12-07T00:58:06;19.30;;;13.17;;
16800;SDS011;8518;53.236;10.384;2022-12-07T01:00:32;18.07;;;12.87;;
16800;SDS011;8518;53.236;10.384;2022-12-07T01:03:00;19.40;;;13.10;;
16800;SDS011;8518;53.236;10.384;2022-12-07T01:05:26;17.57;;;12.17;;
16800;SDS011;8518;53.236;10.384;2022-12-07T01:07:52;18.60;;;12.03;;
16800;SDS011;8518;53.236;10.384;2022-12-07T01:10:17;18.87;;;13.23;;
16800;SDS011;8518;53.236;10.384;2022-12-07T01:12:43;18.80;;;13.00;;
16800;SDS011;8518;53.236;10.384;2022-12-07T01:15:09;16.57;;;11.77;;
16800;SDS011;8518;53.236;10.384;2022-12-07T01:17:35;17.27;;;12.23;;
16800;SDS011;8518;53.236;10.384;2022-12-07T01:20:01;15.33;;;11.30;;
16800;SDS011;8518;53.236;10.384;2022-12-07T01:22:27;16.80;;;11.67;;
16800;SDS011;8518;53.236;10.384;2022-12-07T01:24:53;17.13;;;11.23;;
16800;SDS011;8518;53.236;10.384;2022-12-07T01:27:18;19.87;;;13.10;;
16800;SDS011;8518;53.236;10.384;2022-12-07T01:29:44;17.77;;;11.73;;
16800;SDS011;8518;53.236;10.384;2022-12-07T01:32:10;17.40;;;12.40;;
16800;SDS011;8518;53.236;10.384;2022-12-07T01:34:35;16.17;;;11.60;;
16800;SDS011;8518;53.236;10.384;2022-12-07T01:37:01;17.10;;;12.07;;
16800;SDS011;8518;53.236;10.384;2022-12-07T01:39:27;16.70;;;12.23;;
16800;SDS011;8518;53.236;10.384;2022-12-07T01:41:53;18.70;;;12.37;;
16800;SDS011;8518;53.236;10.384;2022-12-07T01:46:51;17.43;;;12.40;;
16800;SDS011;8518;53.236;10.384;2022-12-07T01:49:52;17.60;;;11.50;;
16800;SDS011;8518;53.236;10.384;2022-12-07T01:52:14;19.27;;;12.37;;
16800;SDS011;8518;53.236;10.384;2022-12-07T01:54:55;17.80;;;11.93;;
16800;SDS011;8518;53.236;10.384;2022-12-07T01:57:24;20.97;;;11.70;;
16800;SDS011;8518;53.236;10.384;2022-12-07T01:59:51;17.40;;;11.40;;
16800;SDS011;8518;53.236;10.384;2022-12-07T02:02:37;16.97;;;11.13;;
16800;SDS011;8518;53.236;10.384;2022-12-07T02:05:24;16.27;;;11.67;;
16800;SDS011;8518;53.236;10.384;2022-12-07T02:07:51;16.43;;;11.97;;
16800;SDS011;8518;53.236;10.384;2022-12-07T02:10:29;18.43;;;11.27;;
16800;SDS011;8518;53.236;10.384;2022-12-07T02:12:57;20.50;;;12.37;;
16800;SDS011;8518;53.236;10.384;2022-12-07T02:15:34;15.10;;;11.17;;
16800;SDS011;8518;53.236;10.384;2022-12-07T02:23:53;16.80;;;10.93;;
16800;SDS011;8518;53.236;10.384;2022-12-07T02:29:30;13.60;;;10.03;;
16800;SDS011;8518;53.236;10.384;2022-12-07T02:40:25;14.97;;;9.67;;
16800;SDS011;8518;53.236;10.384;2022-12-07T02:45:50;13.40;;;10.00;;
16800;SDS011;8518;53.236;10.384;2022-12-07T02:48:18;13.37;;;9.60;;
16800;SDS011;8518;53.236;10.384;2022-12-07T02:50:49;12.60;;;8.90;;
16800;SDS011;8518;53.236;10.384;2022-12-07T03:02:34;11.40;;;8.03;;
16800;SDS011;8518;53.236;10.384;2022-12-07T03:10:31;9.67;;;7.13;;
16800;SDS011;8518;53.236;10.384;2022-12-07T03:13:34;10.13;;;6.37;;
16800;SDS011;8518;53.236;10.384;2022-12-07T03:16:13;12.50;;;7.37;;
16800;SDS011;8518;53.236;10.384;2022-12-07T03:18:46;9.63;;;6.07;;
16800;SDS011;8518;53.236;10.384;2022-12-07T03:21:21;8.83;;;6.43;;
16800;SDS011;8518;53.236;10.384;2022-12-07T03:23:51;9.83;;;6.27;;
16800;SDS011;8518;53.236;10.384;2022-12-07T03:26:21;11.00;;;6.77;;
16800;SDS011;8518;53.236;10.384;2022-12-07T03:28:55;8.60;;;5.97;;
16800;SDS011;8518;53.236;10.384;2022-12-07T03:31:26;7.73;;;5.23;;
16800;SDS011;8518;53.236;10.384;2022-12-07T03:34:06;8.50;;;5.23;;
16800;SDS011;8518;53.236;10.384;2022-12-07T03:42:06;8.50;;;5.20;;
16800;SDS011;8518;53.236;10.384;2022-12-07T03:44:35;10.37;;;5.70;;
16800;SDS011;8518;53.236;10.384;2022-12-07T03:49:59;6.53;;;5.17;;
16800;SDS011;8518;53.236;10.384;2022-12-07T03:53:15;9.27;;;5.37;;
16800;SDS011;8518;53.236;10.384;2022-12-07T03:55:39;8.47;;;4.93;;
16800;SDS011;8518;53.236;10.384;2022-12-07T03:58:16;8.07;;;5.00;;
16800;SDS011;8518;53.236;10.384;2022-12-07T04:00:45;10.67;;;4.90;;
16800;SDS011;8518;53.236;10.384;2022-12-07T04:03:11;6.03;;;4.70;;
16800;SDS011;8518;53.236;10.384;2022-12-07T04:05:37;8.27;;;4.60;;
16800;SDS011;8518;53.236;10.384;2022-12-07T04:08:04;7.20;;;4.20;;
16800;SDS011;8518;53.236;10.384;2022-12-07T04:10:29;7.13;;;4.30;;
16800;SDS011;8518;53.236;10.384;2022-12-07T04:12:55;8.27;;;3.90;;
16800;SDS011;8518;53.236;10.384;2022-12-07T04:15:21;7.87;;;4.37;;
16800;SDS011;8518;53.236;10.384;2022-12-07T04:17:47;5.53;;;4.20;;
16800;SDS011;8518;53.236;10.384;2022-12-07T04:20:13;7.00;;;4.37;;
16800;SDS011;8518;53.236;10.384;2022-12-07T04:22:38;7.27;;;4.50;;
16800;SDS011;8518;53.236;10.384;2022-12-07T04:25:04;6.93;;;4.00;;
16800;SDS011;8518;53.236;10.384;2022-12-07T04:27:30;7.80;;;4.37;;
16800;SDS011;8518;53.236;10.384;2022-12-07T04:29:56;7.57;;;4.57;;
16800;SDS011;8518;53.236;10.384;2022-12-07T04:32:22;7.37;;;4.17;;
16800;SDS011;8518;53.236;10.384;2022-12-07T04:34:48;6.57;;;4.40;;
16800;SDS011;8518;53.236;10.384;2022-12-07T04:37:14;5.80;;;4.20;;
16800;SDS011;8518;53.236;10.384;2022-12-07T04:39:40;9.83;;;4.30;;
16800;SDS011;8518;53.236;10.384;2022-12-07T04:42:05;8.20;;;4.13;;
16800;SDS011;8518;53.236;10.384;2022-12-07T04:44:31;8.27;;;4.30;;
16800;SDS011;8518;53.236;10.384;2022-12-07T04:46:57;8.17;;;4.10;;
16800;SDS011;8518;53.236;10.384;2022-12-07T04:49:23;5.23;;;3.53;;
16800;SDS011;8518;53.236;10.384;2022-12-07T04:51:50;9.63;;;3.87;;
16800;SDS011;8518;53.236;10.384;2022-12-07T04:54:16;7.97;;;3.93;;
16800;SDS011;8518;53.236;10.384;2022-12-07T04:56:42;7.73;;;3.43;;
16800;SDS011;8518;53.236;10.384;2022-12-07T04:59:09;7.20;;;3.40;;
16800;SDS011;8518;53.236;10.384;2022-12-07T05:01:36;6.10;;;3.03;;
16800;SDS011;8518;53.236;10.384;2022-12-07T05:04:02;5.17;;;3.30;;
16800;SDS011;8518;53.236;10.384;2022-12-07T05:06:27;5.03;;;3.50;;
16800;SDS011;8518;53.236;10.384;2022-12-07T05:08:53;6.63;;;3.20;;
16800;SDS011;8518;53.236;10.384;2022-12-07T05:11:19;5.33;;;3.60;;
16800;SDS011;8518;53.236;10.384;2022-12-07T05:14:04;7.13;;;3.37;;
16800;SDS011;8518;53.236;10.384;2022-12-07T05:16:33;4.33;;;2.70;;
16800;SDS011;8518;53.236;10.384;2022-12-07T05:18:58;6.30;;;3.20;;
16800;SDS011;8518;53.236;10.384;2022-12-07T05:21:24;4.27;;;2.73;;
16800;SDS011;8518;53.236;10.384;2022-12-07T05:23:49;5.67;;;2.70;;
16800;SDS011;8518;53.236;10.384;2022-12-07T05:26:16;6.13;;;2.60;;
16800;SDS011;8518;53.236;10.384;2022-12-07T05:28:41;6.90;;;3.57;;
16800;SDS011;8518;53.236;10.384;2022-12-07T05:31:07;3.97;;;2.40;;
16800;SDS011;8518;53.236;10.384;2022-12-07T05:33:33;3.43;;;2.23;;
16800;SDS011;8518;53.236;10.384;2022-12-07T05:35:58;6.13;;;2.80;;
16800;SDS011;8518;53.236;10.384;2022-12-07T05:38:30;6.97;;;2.40;;
16800;SDS011;8518;53.236;10.384;2022-12-07T05:41:00;4.50;;;2.50;;
16800;SDS011;8518;53.236;10.384;2022-12-07T05:43:29;4.07;;;2.30;;
16800;SDS011;8518;53.236;10.384;2022-12-07T05:45:56;3.17;;;2.33;;
16800;SDS011;8518;53.236;10.384;2022-12-07T05:48:22;5.57;;;2.60;;
16800;SDS011;8518;53.236;10.384;2022-12-07T05:50:48;4.43;;;2.73;;
16800;SDS011;8518;53.236;10.384;2022-12-07T05:53:14;5.70;;;2.90;;
16800;SDS011;8518;53.236;10.384;2022-12-07T05:55:40;6.67;;;2.73;;
16800;SDS011;8518;53.236;10.384;2022-12-07T05:58:06;5.00;;;2.67;;
16800;SDS011;8518;53.236;10.384;2022-12-07T06:00:50;5.90;;;2.33;;
16800;SDS011;8518;53.236;10.384;2022-12-07T06:03:15;3.43;;;2.57;;
16800;SDS011;8518;53.236;10.384;2022-12-07T06:05:41;5.53;;;2.40;;
16800;SDS011;8518;53.236;10.384;2022-12-07T06:08:07;4.77;;;2.40;;
16800;SDS011;8518;53.236;10.384;2022-12-07T06:10:32;3.77;;;2.60;;
16800;SDS011;8518;53.236;10.384;2022-12-07T06:12:58;4.70;;;2.30;;
16800;SDS011;8518;53.236;10.384;2022-12-07T06:15:27;3.90;;;2.37;;
16800;SDS011;8518;53.236;10.384;2022-12-07T06:17:53;4.90;;;2.57;;
16800;SDS011;8518;53.236;10.384;2022-12-07T06:20:18;6.73;;;2.80;;
16800;SDS011;8518;53.236;10.384;2022-12-07T06:22:44;4.57;;;2.50;;
16800;SDS011;8518;53.236;10.384;2022-12-07T06:25:10;4.57;;;2.67;;
16800;SDS011;8518;53.236;10.384;2022-12-07T06:27:36;4.23;;;2.73;;
16800;SDS011;8518;53.236;10.384;2022-12-07T06:30:01;7.20;;;3.30;;
16800;SDS011;8518;53.236;10.384;2022-12-07T06:32:31;4.83;;;3.07;;
16800;SDS011;8518;53.236;10.384;2022-12-07T06:34:58;7.80;;;3.43;;
16800;SDS011;8518;53.236;10.384;2022-12-07T06:37:24;6.50;;;3.23;;
16800;SDS011;8518;53.236;10.384;2022-12-07T06:39:50;5.27;;;2.80;;
16800;SDS011;8518;53.236;10.384;2022-12-07T06:42:15;6.83;;;2.83;;
16800;SDS011;8518;53.236;10.384;2022-12-07T06:44:41;5.10;;;3.30;;
16800;SDS011;8518;53.236;10.384;2022-12-07T06:47:07;5.13;;;2.90;;
16800;SDS011;8518;53.236;10.384;2022-12-07T06:49:34;5.93;;;3.03;;
16800;SDS011;8518;53.236;10.384;2022-12-07T06:51:59;5.40;;;3.10;;
16800;SDS011;8518;53.236;10.384;2022-12-07T06:54:25;8.47;;;3.53;;
16800;SDS011;8518;53.236;10.384;2022-12-07T06:56:51;7.07;;;3.30;;
16800;SDS011;8518;53.236;10.384;2022-12-07T06:59:16;6.47;;;3.33;;
16800;SDS011;8518;53.236;10.384;2022-12-07T07:01:42;6.27;;;3.30;;
16800;SDS011;8518;53.236;10.384;2022-12-07T07:04:08;7.37;;;3.43;;
16800;SDS011;8518;53.236;10.384;2022-12-07T07:06:33;5.73;;;3.37;;
16800;SDS011;8518;53.236;10.384;2022-12-07T07:08:59;5.70;;;3.10;;
16800;SDS011;8518;53.236;10.384;2022-12-07T07:11:25;7.37;;;3.77;;
16800;SDS011;8518;53.236;10.384;2022-12-07T07:13:50;5.60;;;2.90;;
16800;SDS011;8518;53.236;10.384;2022-12-07T07:16:16;6.53;;;2.97;;
16800;SDS011;8518;53.236;10.384;2022-12-07T07:18:42;9.00;;;2.90;;
16800;SDS011;8518;53.236;10.384;2022-12-07T07:21:10;5.83;;;2.40;;
16800;SDS011;8518;53.236;10.384;2022-12-07T07:23:36;7.70;;;3.33;;
16800;SDS011;8518;53.236;10.384;2022-12-07T07:26:01;4.80;;;3.00;;
16800;SDS011;8518;53.236;10.384;2022-12-07T07:28:30;7.03;;;2.77;;
16800;SDS011;8518;53.236;10.384;2022-12-07T07:30:55;4.50;;;2.47;;
16800;SDS011;8518;53.236;10.384;2022-12-07T07:33:21;5.67;;;2.70;;
16800;SDS011;8518;53.236;10.384;2022-12-07T07:35:47;4.33;;;2.60;;
16800;SDS011;8518;53.236;10.384;2022-12-07T07:38:12;5.47;;;2.43;;
16800;SDS011;8518;53.236;10.384;2022-12-07T07:40:38;4.63;;;2.40;;
16800;SDS011;8518;53.236;10.384;2022-12-07T07:43:03;4.90;;;2.17;;
16800;SDS011;8518;53.236;10.384;2022-12-07T07:45:29;3.27;;;2.33;;
16800;SDS011;8518;53.236;10.384;2022-12-07T07:47:55;4.20;;;2.53;;
16800;SDS011;8518;53.236;10.384;2022-12-07T07:50:21;2.77;;;2.10;;
16800;SDS011;8518;53.236;10.384;2022-12-07T07:52:46;5.00;;;2.50;;
16800;SDS011;8518;53.236;10.384;2022-12-07T07:55:12;4.30;;;2.80;;
16800;SDS011;8518;53.236;10.384;2022-12-07T07:57:38;5.27;;;2.60;;
16800;SDS011;8518;53.236;10.384;2022-12-07T08:00:09;3.50;;;2.40;;
16800;SDS011;8518;53.236;10.384;2022-12-07T08:02:37;5.57;;;3.00;;
16800;SDS011;8518;53.236;10.384;2022-12-07T08:05:02;3.93;;;2.50;;
16800;SDS011;8518;53.236;10.384;2022-12-07T08:07:28;4.97;;;2.97;;
16800;SDS011;8518;53.236;10.384;2022-12-07T08:09:54;3.00;;;2.13;;
16800;SDS011;8518;53.236;10.384;2022-12-07T08:12:19;4.10;;;2.60;;
16800;SDS011;8518;53.236;10.384;2022-12-07T08:14:45;4.23;;;2.37;;
16800;SDS011;8518;53.236;10.384;2022-12-07T08:17:11;4.27;;;2.13;;
16800;SDS011;8518;53.236;10.384;2022-12-07T08:19:37;3.87;;;2.30;;
16800;SDS011;8518;53.236;10.384;2022-12-07T08:22:03;3.50;;;2.00;;
16800;SDS011;8518;53.236;10.384;2022-12-07T08:24:29;3.30;;;2.77;;
16800;SDS011;8518;53.236;10.384;2022-12-07T08:26:54;4.33;;;2.67;;
16800;SDS011;8518;53.236;10.384;2022-12-07T08:29:20;4.33;;;2.00;;
16800;SDS011;8518;53.236;10.384;2022-12-07T08:31:46;3.97;;;1.83;;
16800;SDS011;8518;53.236;10.384;2022-12-07T08:34:12;2.30;;;2.10;;
16800;SDS011;8518;53.236;10.384;2022-12-07T08:36:38;3.03;;;1.93;;
16800;SDS011;8518;53.236;10.384;2022-12-07T08:39:04;3.10;;;1.80;;
16800;SDS011;8518;53.236;10.384;2022-12-07T08:41:30;3.43;;;1.90;;
16800;SDS011;8518;53.236;10.384;2022-12-07T08:43:56;4.43;;;1.93;;
16800;SDS011;8518;53.236;10.384;2022-12-07T08:49:02;2.23;;;1.80;;
16800;SDS011;8518;53.236;10.384;2022-12-07T08:51:31;2.70;;;1.93;;
16800;SDS011;8518;53.236;10.384;2022-12-07T08:53:57;3.13;;;1.90;;
16800;SDS011;8518;53.236;10.384;2022-12-07T08:56:25;2.63;;;1.53;;
16800;SDS011;8518;53.236;10.384;2022-12-07T08:58:52;4.40;;;1.67;;
16800;SDS011;8518;53.236;10.384;2022-12-07T09:01:18;3.37;;;1.60;;
16800;SDS011;8518;53.236;10.384;2022-12-07T09:03:44;3.00;;;1.73;;
16800;SDS011;8518;53.236;10.384;2022-12-07T09:06:09;2.43;;;1.47;;
16800;SDS011;8518;53.236;10.384;2022-12-07T09:08:42;5.00;;;1.87;;
16800;SDS011;8518;53.236;10.384;2022-12-07T09:11:11;2.67;;;1.57;;
16800;SDS011;8518;53.236;10.384;2022-12-07T09:13:36;3.50;;;1.70;;
16800;SDS011;8518;53.236;10.384;2022-12-07T09:16:02;3.97;;;2.03;;
16800;SDS011;8518;53.236;10.384;2022-12-07T09:18:28;2.90;;;1.60;;
16800;SDS011;8518;53.236;10.384;2022-12-07T09:20:53;3.30;;;1.20;;
16800;SDS011;8518;53.236;10.384;2022-12-07T09:23:19;4.77;;;1.20;;
16800;SDS011;8518;53.236;10.384;2022-12-07T09:25:45;4.10;;;1.37;;
16800;SDS011;8518;53.236;10.384;2022-12-07T09:28:10;4.17;;;1.40;;
16800;SDS011;8518;53.236;10.384;2022-12-07T09:30:36;5.10;;;1.40;;
16800;SDS011;8518;53.236;10.384;2022-12-07T09:33:01;4.20;;;1.20;;
16800;SDS011;8518;53.236;10.384;2022-12-07T09:35:27;2.70;;;1.10;;
16800;SDS011;8518;53.236;10.384;2022-12-07T09:37:53;1.93;;;1.00;;
16800;SDS011;8518;53.236;10.384;2022-12-07T09:40:19;3.33;;;1.23;;
16800;SDS011;8518;53.236;10.384;2022-12-07T09:42:48;2.03;;;1.23;;
16800;SDS011;8518;53.236;10.384;2022-12-07T09:45:19;4.63;;;1.40;;
16800;SDS011;8518;53.236;10.384;2022-12-07T09:48:15;2.80;;;1.10;;
16800;SDS011;8518;53.236;10.384;2022-12-07T09:50:44;5.37;;;1.27;;
16800;SDS011;8518;53.236;10.384;2022-12-07T09:53:15;3.80;;;1.10;;
16800;SDS011;8518;53.236;10.384;2022-12-07T09:55:54;4.70;;;1.50;;
16800;SDS011;8518;53.236;10.384;2022-12-07T09:58:21;1.80;;;1.13;;
16800;SDS011;8518;53.236;10.384;2022-12-07T10:00:53;5.37;;;1.70;;
16800;SDS011;8518;53.236;10.384;2022-12-07T10:03:22;7.10;;;1.17;;
16800;SDS011;8518;53.236;10.384;2022-12-07T10:05:49;4.30;;;1.30;;
16800;SDS011;8518;53.236;10.384;2022-12-07T10:08:16;2.70;;;1.30;;
16800;SDS011;8518;53.236;10.384;2022-12-07T10:10:42;2.47;;;1.03;;
16800;SDS011;8518;53.236;10.384;2022-12-07T10:13:14;3.70;;;1.40;;
16800;SDS011;8518;53.236;10.384;2022-12-07T10:15:53;2.07;;;1.20;;
16800;SDS011;8518;53.236;10.384;2022-12-07T10:20:59;2.03;;;1.23;;
16800;SDS011;8518;53.236;10.384;2022-12-07T10:23:40;4.50;;;1.33;;
16800;SDS011;8518;53.236;10.384;2022-12-07T10:31:39;3.63;;;1.17;;
16800;SDS011;8518;53.236;10.384;2022-12-07T10:34:14;3.83;;;0.90;;
16800;SDS011;8518;53.236;10.384;2022-12-07T10:36:50;5.73;;;1.23;;
16800;SDS011;8518;53.236;10.384;2022-12-07T10:39:20;1.60;;;0.70;;
16800;SDS011;8518;53.236;10.384;2022-12-07T10:41:57;3.87;;;0.80;;
16800;SDS011;8518;53.236;10.384;2022-12-07T10:44:33;5.27;;;0.80;;
16800;SDS011;8518;53.236;10.384;2022-12-07T11:00:37;1.90;;;0.50;;
16800;SDS011;8518;53.236;10.384;2022-12-07T11:03:23;2.23;;;0.40;;
16800;SDS011;8518;53.236;10.384;2022-12-07T11:20:01;5.13;;;0.70;;
16800;SDS011;8518;53.236;10.384;2022-12-07T11:24:30;1.60;;;0.57;;
16800;SDS011;8518;53.236;10.384;2022-12-07T11:30:09;2.47;;;1.00;;
16800;SDS011;8518;53.236;10.384;2022-12-07T11:32:56;2.63;;;0.90;;
16800;SDS011;8518;53.236;10.384;2022-12-07T11:41:10;1.67;;;0.80;;
16800;SDS011;8518;53.236;10.384;2022-12-07T11:43:37;1.30;;;0.40;;
16800;SDS011;8518;53.236;10.384;2022-12-07T11:46:17;3.37;;;0.90;;
16800;SDS011;8518;53.236;10.384;2022-12-07T11:48:45;2.23;;;0.83;;
16800;SDS011;8518;53.236;10.384;2022-12-07T11:51:20;2.30;;;0.70;;
16800;SDS011;8518;53.236;10.384;2022-12-07T11:53:55;2.57;;;0.97;;
16800;SDS011;8518;53.236;10.384;2022-12-07T11:56:27;3.60;;;0.80;;
16800;SDS011;8518;53.236;10.384;2022-12-07T11:58:56;1.80;;;1.00;;
16800;SDS011;8518;53.236;10.384;2022-12-07T12:01:39;1.23;;;0.70;;
16800;SDS011;8518;53.236;10.384;2022-12-07T12:04:23;4.93;;;1.13;;
16800;SDS011;8518;53.236;10.384;2022-12-07T12:07:00;1.73;;;0.70;;
16800;SDS011;8518;53.236;10.384;2022-12-07T12:09:34;5.53;;;1.10;;
16800;SDS011;8518;53.236;10.384;2022-12-07T12:20:36;4.20;;;1.00;;
16800;SDS011;8518;53.236;10.384;2022-12-07T12:25:46;2.93;;;1.33;;
16800;SDS011;8518;53.236;10.384;2022-12-07T12:28:20;3.63;;;1.00;;
16800;SDS011;8518;53.236;10.384;2022-12-07T12:30:47;4.07;;;0.80;;
16800;SDS011;8518;53.236;10.384;2022-12-07T12:33:38;3.87;;;0.93;;
16800;SDS011;8518;53.236;10.384;2022-12-07T12:46:48;3.57;;;1.13;;
16800;SDS011;8518;53.236;10.384;2022-12-07T12:51:45;4.33;;;1.50;;
16800;SDS011;8518;53.236;10.384;2022-12-07T12:59:24;3.60;;;0.90;;
16800;SDS011;8518;53.236;10.384;2022-12-07T13:01:55;2.83;;;1.23;;
16800;SDS011;8518;53.236;10.384;2022-12-07T13:04:39;4.00;;;0.83;;
16800;SDS011;8518;53.236;10.384;2022-12-07T13:07:48;3.87;;;1.20;;
16800;SDS011;8518;53.236;10.384;2022-12-07T13:10:18;2.03;;;0.80;;
16800;SDS011;8518;53.236;10.384;2022-12-07T13:20:57;4.67;;;0.80;;
16800;SDS011;8518;53.236;10.384;2022-12-07T13:29:12;3.57;;;1.30;;
16800;SDS011;8518;53.236;10.384;2022-12-07T13:31:46;2.93;;;1.13;;
16800;SDS011;8518;53.236;10.384;2022-12-07T13:34:33;3.57;;;0.97;;
16800;SDS011;8518;53.236;10.384;2022-12-07T13:39:55;5.63;;;1.10;;
16800;SDS011;8518;53.236;10.384;2022-12-07T13:44:59;4.83;;;0.77;;
16800;SDS011;8518;53.236;10.384;2022-12-07T13:47:48;3.03;;;0.80;;
16800;SDS011;8518;53.236;10.384;2022-12-07T13:52:56;3.23;;;0.90;;
16800;SDS011;8518;53.236;10.384;2022-12-07T13:55:23;3.53;;;0.83;;
16800;SDS011;8518;53.236;10.384;2022-12-07T13:57:49;4.30;;;0.90;;
16800;SDS011;8518;53.236;10.384;2022-12-07T14:00:20;4.23;;;1.10;;
16800;SDS011;8518;53.236;10.384;2022-12-07T14:05:46;2.73;;;0.80;;
16800;SDS011;8518;53.236;10.384;2022-12-07T14:08:29;5.17;;;1.00;;
16800;SDS011;8518;53.236;10.384;2022-12-07T14:10:56;6.67;;;1.17;;
16800;SDS011;8518;53.236;10.384;2022-12-07T14:16:18;3.67;;;0.60;;
16800;SDS011;8518;53.236;10.384;2022-12-07T14:18:45;5.87;;;1.47;;
16800;SDS011;8518;53.236;10.384;2022-12-07T14:21:18;6.50;;;1.10;;
16800;SDS011;8518;53.236;10.384;2022-12-07T14:24:04;4.33;;;1.00;;
16800;SDS011;8518;53.236;10.384;2022-12-07T14:26:51;2.73;;;0.87;;
16800;SDS011;8518;53.236;10.384;2022-12-07T14:31:55;6.63;;;1.10;;
16800;SDS011;8518;53.236;10.384;2022-12-07T14:34:22;4.43;;;0.90;;
16800;SDS011;8518;53.236;10.384;2022-12-07T14:36:49;6.03;;;1.37;;
16800;SDS011;8518;53.236;10.384;2022-12-07T14:39:15;3.73;;;1.10;;
16800;SDS011;8518;53.236;10.384;2022-12-07T14:41:40;4.27;;;0.90;;
16800;SDS011;8518;53.236;10.384;2022-12-07T14:44:16;2.93;;;1.20;;
16800;SDS011;8518;53.236;10.384;2022-12-07T14:46:42;2.47;;;1.20;;
16800;SDS011;8518;53.236;10.384;2022-12-07T14:49:08;2.90;;;1.27;;
16800;SDS011;8518;53.236;10.384;2022-12-07T14:51:33;3.80;;;1.30;;
16800;SDS011;8518;53.236;10.384;2022-12-07T14:54:04;5.70;;;1.43;;
16800;SDS011;8518;53.236;10.384;2022-12-07T14:56:32;5.23;;;1.30;;
16800;SDS011;8518;53.236;10.384;2022-12-07T14:58:57;4.13;;;1.77;;
16800;SDS011;8518;53.236;10.384;2022-12-07T15:01:23;2.90;;;1.13;;
16800;SDS011;8518;53.236;10.384;2022-12-07T15:03:49;7.83;;;1.33;;
16800;SDS011;8518;53.236;10.384;2022-12-07T15:06:16;3.23;;;1.20;;
16800;SDS011;8518;53.236;10.384;2022-12-07T15:08:42;2.37;;;0.90;;
16800;SDS011;8518;53.236;10.384;2022-12-07T15:11:12;3.90;;;0.90;;
16800;SDS011;8518;53.236;10.384;2022-12-07T15:13:39;4.50;;;1.10;;
16800;SDS011;8518;53.236;10.384;2022-12-07T15:16:23;4.80;;;1.47;;
16800;SDS011;8518;53.236;10.384;2022-12-07T15:18:48;5.33;;;1.60;;
16800;SDS011;8518;53.236;10.384;2022-12-07T15:21:14;5.97;;;1.13;;
16800;SDS011;8518;53.236;10.384;2022-12-07T15:23:40;2.80;;;1.30;;
16800;SDS011;8518;53.236;10.384;2022-12-07T15:26:07;3.53;;;2.63;;
16800;SDS011;8518;53.236;10.384;2022-12-07T15:28:34;5.23;;;1.50;;
16800;SDS011;8518;53.236;10.384;2022-12-07T15:31:02;5.83;;;1.37;;
16800;SDS011;8518;53.236;10.384;2022-12-07T15:33:28;2.87;;;0.93;;
16800;SDS011;8518;53.236;10.384;2022-12-07T15:35:54;2.90;;;1.20;;
16800;SDS011;8518;53.236;10.384;2022-12-07T15:38:23;5.03;;;1.40;;
16800;SDS011;8518;53.236;10.384;2022-12-07T15:40:51;3.73;;;1.50;;
16800;SDS011;8518;53.236;10.384;2022-12-07T15:43:17;3.37;;;1.13;;
16800;SDS011;8518;53.236;10.384;2022-12-07T15:46:00;4.53;;;1.90;;
16800;SDS011;8518;53.236;10.384;2022-12-07T15:48:26;5.03;;;2.57;;
16800;SDS011;8518;53.236;10.384;2022-12-07T15:50:52;8.57;;;2.17;;
16800;SDS011;8518;53.236;10.384;2022-12-07T15:53:17;7.67;;;3.00;;
16800;SDS011;8518;53.236;10.384;2022-12-07T15:55:43;4.33;;;2.90;;
16800;SDS011;8518;53.236;10.384;2022-12-07T15:58:09;5.77;;;2.17;;
16800;SDS011;8518;53.236;10.384;2022-12-07T16:00:34;3.67;;;1.63;;
16800;SDS011;8518;53.236;10.384;2022-12-07T16:03:00;4.40;;;1.80;;
16800;SDS011;8518;53.236;10.384;2022-12-07T16:05:26;3.50;;;1.63;;
16800;SDS011;8518;53.236;10.384;2022-12-07T16:07:51;3.57;;;2.07;;
16800;SDS011;8518;53.236;10.384;2022-12-07T16:10:17;7.73;;;2.90;;
16800;SDS011;8518;53.236;10.384;2022-12-07T16:12:42;7.33;;;3.10;;
16800;SDS011;8518;53.236;10.384;2022-12-07T16:15:08;4.10;;;2.20;;
16800;SDS011;8518;53.236;10.384;2022-12-07T16:17:34;4.10;;;2.00;;
16800;SDS011;8518;53.236;10.384;2022-12-07T16:20:00;6.03;;;2.37;;
16800;SDS011;8518;53.236;10.384;2022-12-07T16:22:26;6.07;;;2.50;;
16800;SDS011;8518;53.236;10.384;2022-12-07T16:24:51;4.10;;;2.37;;
16800;SDS011;8518;53.236;10.384;2022-12-07T16:27:17;5.20;;;2.90;;
16800;SDS011;8518;53.236;10.384;2022-12-07T16:29:43;3.67;;;2.40;;
16800;SDS011;8518;53.236;10.384;2022-12-07T16:32:08;8.47;;;2.73;;
16800;SDS011;8518;53.236;10.384;2022-12-07T16:34:34;8.97;;;2.67;;
16800;SDS011;8518;53.236;10.384;2022-12-07T16:37:00;6.07;;;2.10;;
16800;SDS011;8518;53.236;10.384;2022-12-07T16:39:25;7.73;;;3.70;;
16800;SDS011;8518;53.236;10.384;2022-12-07T16:41:51;5.20;;;3.47;;
16800;SDS011;8518;53.236;10.384;2022-12-07T16:44:17;9.20;;;3.80;;
16800;SDS011;8518;53.236;10.384;2022-12-07T16:46:43;5.30;;;3.30;;
16800;SDS011;8518;53.236;10.384;2022-12-07T16:49:12;6.60;;;3.27;;
16800;SDS011;8518;53.236;10.384;2022-12-07T16:51:38;6.97;;;3.53;;
16800;SDS011;8518;53.236;10.384;2022-12-07T16:54:05;6.40;;;4.13;;
16800;SDS011;8518;53.236;10.384;2022-12-07T16:56:31;6.80;;;4.00;;
16800;SDS011;8518;53.236;10.384;2022-12-07T16:59:00;7.23;;;4.60;;
16800;SDS011;8518;53.236;10.384;2022-12-07T17:01:26;5.87;;;4.10;;
16800;SDS011;8518;53.236;10.384;2022-12-07T17:03:53;10.37;;;4.67;;
16800;SDS011;8518;53.236;10.384;2022-12-07T17:06:20;9.70;;;5.17;;
16800;SDS011;8518;53.236;10.384;2022-12-07T17:08:48;7.03;;;4.13;;
16800;SDS011;8518;53.236;10.384;2022-12-07T17:11:18;5.43;;;3.80;;
16800;SDS011;8518;53.236;10.384;2022-12-07T17:13:46;5.50;;;3.77;;
16800;SDS011;8518;53.236;10.384;2022-12-07T17:16:30;6.13;;;4.03;;
16800;SDS011;8518;53.236;10.384;2022-12-07T17:18:56;10.50;;;4.03;;
16800;SDS011;8518;53.236;10.384;2022-12-07T17:21:22;7.43;;;3.80;;
16800;SDS011;8518;53.236;10.384;2022-12-07T17:23:47;8.90;;;3.90;;
16800;SDS011;8518;53.236;10.384;2022-12-07T17:26:15;6.43;;;4.07;;
16800;SDS011;8518;53.236;10.384;2022-12-07T17:28:45;5.53;;;3.90;;